Time;durP1;ratioP1;P1;durP2;ratioP2;P2;SDS_P1;SDS_P2;PMS_P1;PMS_P2;Temp;Humidity;BMP_temperature;BMP_pressure;BME280_temperature;BME280_humidity;BME280_pressure;Samples;Min_cycle;Max_cycle;Signal;HPM_P1;HPM_P2
2022/04/16 00:01:34;;;;;;;13.02;10.77;;;13.30;80.80;;;;;;5064070;28;20024;-74
2022/04/16 00:04:00;;;;;;;15.82;11.35;;;13.30;80.80;;;;;;5064399;28;20024;-74
2022/04/16 00:06:26;;;;;;;15.18;11.65;;;13.30;80.80;;;;;;5064981;28;20740;-74
2022/04/16 00:08:51;;;;;;;13.52;10.60;;;13.30;81.30;;;;;;5066238;28;20078;-74
2022/04/16 00:11:17;;;;;;;13.88;11.27;;;13.30;80.90;;;;;;5064267;28;20021;-75
2022/04/16 00:13:42;;;;;;;14.38;11.00;;;13.30;80.90;;;;;;5065813;28;20028;-74
2022/04/16 00:16:09;;;;;;;13.60;10.75;;;13.30;80.90;;;;;;5064504;28;20102;-75
2022/04/16 00:18:35;;;;;;;16.48;11.52;;;13.30;80.90;;;;;;5064549;28;20024;-74
2022/04/16 00:21:04;;;;;;;13.68;11.45;;;13.30;80.90;;;;;;5064079;28;20044;-75
2022/04/16 00:23:30;;;;;;;14.75;11.20;;;13.30;80.90;;;;;;5064461;28;20796;-75
2022/04/16 00:25:56;;;;;;;14.63;11.30;;;13.30;81.00;;;;;;5064756;28;20016;-74
2022/04/16 00:28:22;;;;;;;14.02;11.55;;;13.30;81.50;;;;;;5064604;28;20029;-74
2022/04/16 00:30:48;;;;;;;13.60;11.68;;;13.30;81.00;;;;;;5064165;28;20028;-74
2022/04/16 00:33:13;;;;;;;15.80;11.77;;;13.20;80.90;;;;;;5065956;28;20036;-74
2022/04/16 00:35:43;;;;;;;13.80;11.05;;;13.30;81.00;;;;;;5064001;28;20090;-74
2022/04/16 00:38:09;;;;;;;14.52;11.50;;;13.20;81.00;;;;;;5064351;28;20025;-74
2022/04/16 00:40:35;;;;;;;13.77;11.02;;;13.30;81.10;;;;;;5064125;28;20051;-75
2022/04/16 00:43:00;;;;;;;14.93;11.73;;;13.30;81.20;;;;;;5064281;28;20070;-74
2022/04/16 00:45:26;;;;;;;15.88;12.00;;;13.30;81.20;;;;;;5065979;28;20085;-75
2022/04/16 00:47:53;;;;;;;14.57;11.60;;;13.30;81.20;;;;;;5065386;28;20052;-74
2022/04/16 00:50:19;;;;;;;14.43;11.50;;;13.30;81.20;;;;;;5063807;28;20033;-75
2022/04/16 00:52:45;;;;;;;15.18;12.18;;;13.30;81.20;;;;;;5063352;28;20095;-74
2022/04/16 00:55:11;;;;;;;15.60;12.23;;;13.30;81.20;;;;;;5064117;28;20043;-74
2022/04/16 00:57:40;;;;;;;14.98;12.00;;;13.20;81.20;;;;;;5065459;28;20028;-75
2022/04/16 01:00:07;;;;;;;15.75;12.05;;;13.20;81.20;;;;;;5063772;28;20390;-74
2022/04/16 01:02:37;;;;;;;13.07;11.10;;;13.30;81.20;;;;;;5064447;28;20493;-74
2022/04/16 01:05:04;;;;;;;14.02;11.70;;;13.20;81.20;;;;;;5063726;28;20028;-73
2022/04/16 01:07:30;;;;;;;14.52;11.52;;;13.20;81.20;;;;;;5064329;28;20017;-74
2022/04/16 01:09:55;;;;;;;14.57;12.43;;;13.30;81.20;;;;;;5063764;28;20126;-75
2022/04/16 01:12:21;;;;;;;14.05;11.52;;;13.20;81.10;;;;;;5064195;28;20021;-74
2022/04/16 01:14:47;;;;;;;13.45;10.88;;;13.20;81.10;;;;;;5064065;28;20490;-75
2022/04/16 01:17:13;;;;;;;14.43;11.15;;;13.20;81.10;;;;;;5065371;28;20487;-74
2022/04/16 01:19:40;;;;;;;15.35;11.85;;;13.20;81.10;;;;;;5064456;28;20035;-73
2022/04/16 01:22:06;;;;;;;13.90;11.10;;;13.30;81.10;;;;;;5064098;28;20017;-74
2022/04/16 01:24:34;;;;;;;14.18;11.48;;;13.30;81.10;;;;;;5064261;28;20020;-74
2022/04/16 01:27:00;;;;;;;14.30;11.55;;;13.20;81.00;;;;;;5064845;28;20070;-75
2022/04/16 01:29:26;;;;;;;13.60;11.13;;;13.20;81.10;;;;;;5065152;28;20398;-74
2022/04/16 01:31:53;;;;;;;15.18;12.40;;;13.20;81.00;;;;;;5064997;28;20047;-75
2022/04/16 01:34:19;;;;;;;13.40;10.60;;;13.20;81.00;;;;;;5065139;28;20020;-74
2022/04/16 01:36:45;;;;;;;13.98;11.40;;;13.30;81.00;;;;;;5065345;28;20027;-74
2022/04/16 01:39:11;;;;;;;14.32;10.38;;;13.20;81.00;;;;;;5063577;28;20020;-74
2022/04/16 01:41:37;;;;;;;13.07;10.68;;;13.20;81.00;;;;;;5063614;28;20058;-75
2022/04/16 01:44:03;;;;;;;13.85;10.77;;;13.30;81.20;;;;;;5065090;28;20074;-74
2022/04/16 01:46:29;;;;;;;12.98;10.45;;;13.20;81.10;;;;;;5064932;28;20115;-74
2022/04/16 01:48:55;;;;;;;13.90;10.75;;;13.30;81.20;;;;;;5067275;28;20395;-75
2022/04/16 01:51:21;;;;;;;13.98;9.45;;;13.30;81.30;;;;;;5067394;28;20028;-75
2022/04/16 01:53:47;;;;;;;12.77;10.80;;;13.20;81.20;;;;;;5067223;28;20053;-74
2022/04/16 01:56:13;;;;;;;13.65;10.77;;;13.20;81.20;;;;;;5067329;28;20036;-75
2022/04/16 01:58:39;;;;;;;14.48;10.38;;;13.20;81.20;;;;;;5068663;28;20025;-73
2022/04/16 02:01:05;;;;;;;13.35;10.52;;;13.20;81.20;;;;;;5067061;28;20024;-75
2022/04/16 02:03:31;;;;;;;13.10;10.65;;;13.20;81.20;;;;;;5068453;28;20028;-74
2022/04/16 02:05:57;;;;;;;12.48;9.85;;;13.20;81.30;;;;;;5067012;28;20399;-75
2022/04/16 02:08:22;;;;;;;13.98;10.80;;;13.20;81.30;;;;;;5067880;28;20028;-74
2022/04/16 02:10:48;;;;;;;13.48;9.93;;;13.20;81.30;;;;;;5061340;28;20623;-74
2022/04/16 02:13:13;;;;;;;13.63;10.38;;;13.20;81.30;;;;;;5057694;28;20024;-74
2022/04/16 02:15:39;;;;;;;14.23;10.63;;;13.20;81.80;;;;;;5066944;28;20435;-74
2022/04/16 02:18:05;;;;;;;12.85;10.40;;;13.20;81.30;;;;;;5067320;28;20551;-74
2022/04/16 02:20:31;;;;;;;12.85;10.45;;;13.20;81.40;;;;;;5066232;28;20130;-75
2022/04/16 02:22:56;;;;;;;15.77;10.73;;;13.20;81.40;;;;;;5066903;28;20043;-75
2022/04/16 02:25:24;;;;;;;13.32;10.70;;;13.20;81.50;;;;;;5066971;28;20170;-75
2022/04/16 02:27:49;;;;;;;13.93;10.75;;;13.20;81.40;;;;;;5068179;28;20027;-75
2022/04/16 02:30:16;;;;;;;14.40;11.35;;;13.20;81.40;;;;;;5067656;28;20021;-74
2022/04/16 02:32:44;;;;;;;13.20;10.07;;;13.20;81.40;;;;;;5068137;28;20052;-74
2022/04/16 02:35:13;;;;;;;14.15;10.77;;;13.20;81.30;;;;;;5067629;28;20661;-75
2022/04/16 02:37:39;;;;;;;14.23;10.63;;;13.20;81.40;;;;;;5067843;28;20024;-74
2022/04/16 02:40:06;;;;;;;14.30;10.75;;;13.20;81.30;;;;;;5066422;28;20360;-75
2022/04/16 02:42:35;;;;;;;13.07;10.32;;;13.20;81.30;;;;;;5066682;28;20025;-74
2022/04/16 02:47:46;;;;;;;14.15;10.52;;;13.20;81.40;;;;;;5055456;28;20035;-74
2022/04/16 02:50:12;;;;;;;13.27;10.65;;;13.20;81.40;;;;;;5065227;28;20020;-74
2022/04/16 02:52:39;;;;;;;14.85;11.35;;;13.20;81.30;;;;;;5066893;28;20078;-75
2022/04/16 02:55:05;;;;;;;14.73;11.32;;;13.20;81.30;;;;;;5067747;28;20020;-75
2022/04/16 02:57:33;;;;;;;14.50;11.25;;;13.20;81.30;;;;;;5067497;28;20028;-74
2022/04/16 02:59:59;;;;;;;15.13;11.60;;;13.20;81.30;;;;;;5065674;28;20474;-74
2022/04/16 03:02:25;;;;;;;15.23;11.02;;;13.20;81.30;;;;;;5067358;28;20433;-74
2022/04/16 03:04:51;;;;;;;15.63;11.73;;;13.20;81.30;;;;;;5067297;28;20032;-74
2022/04/16 03:07:17;;;;;;;15.27;11.20;;;13.20;81.70;;;;;;5067320;28;20017;-74
2022/04/16 03:09:43;;;;;;;16.08;11.55;;;13.20;81.20;;;;;;5067027;28;20020;-75
2022/04/16 03:12:09;;;;;;;22.80;12.48;;;13.20;81.20;;;;;;5065878;28;20029;-74
2022/04/16 03:17:33;;;;;;;32.55;13.65;;;13.20;81.10;;;;;;5067590;28;20039;-74
2022/04/16 03:20:07;;;;;;;38.72;13.43;;;13.30;81.10;;;;;;5065484;28;20033;-75
2022/04/16 03:22:33;;;;;;;26.67;12.52;;;13.20;80.60;;;;;;5046821;28;20112;-76
2022/04/16 03:25:07;;;;;;;24.65;13.27;;;13.20;80.50;;;;;;5047410;28;20481;-74
2022/04/16 03:27:33;;;;;;;21.45;12.45;;;13.20;80.10;;;;;;5045598;28;20017;-74
2022/04/16 03:29:58;;;;;;;22.48;13.75;;;13.20;80.00;;;;;;5060539;28;20070;-74
2022/04/16 03:32:24;;;;;;;23.05;13.00;;;13.20;80.00;;;;;;5065471;28;20059;-74
2022/04/16 03:34:50;;;;;;;23.85;12.85;;;13.20;79.90;;;;;;5065630;28;20055;-74
2022/04/16 03:37:15;;;;;;;21.77;12.40;;;13.20;79.50;;;;;;5065347;28;20055;-75
2022/04/16 03:39:40;;;;;;;20.10;13.07;;;13.20;79.30;;;;;;5065046;28;20487;-75
2022/04/16 03:42:06;;;;;;;21.83;13.15;;;13.20;79.30;;;;;;5066448;28;20464;-75
2022/04/16 03:44:31;;;;;;;21.60;13.43;;;13.20;79.20;;;;;;5065231;28;20070;-75
2022/04/16 03:46:57;;;;;;;19.88;13.27;;;13.20;79.30;;;;;;5066769;28;20043;-74
2022/04/16 03:49:22;;;;;;;19.38;13.30;;;13.20;79.00;;;;;;5065382;28;20024;-74
2022/04/16 03:51:48;;;;;;;20.75;13.35;;;13.20;79.20;;;;;;5065108;28;20066;-75
2022/04/16 04:00:00;;;;;;;19.17;12.50;;;13.20;79.70;;;;;;5064759;28;20032;-74
2022/04/16 04:02:28;;;;;;;18.00;12.02;;;13.10;79.70;;;;;;5066294;28;20017;-75
2022/04/16 04:04:54;;;;;;;17.15;12.05;;;13.10;79.70;;;;;;5065284;28;20036;-74
2022/04/16 04:07:20;;;;;;;18.77;12.00;;;13.20;80.00;;;;;;5065665;28;20025;-74
2022/04/16 04:09:45;;;;;;;20.33;12.68;;;13.20;80.00;;;;;;5064153;28;20411;-74
2022/04/16 04:12:12;;;;;;;18.58;12.50;;;13.20;80.00;;;;;;5064655;28;20394;-75
2022/04/16 04:14:42;;;;;;;21.13;12.68;;;13.20;79.70;;;;;;5066229;28;20062;-75
2022/04/16 04:17:08;;;;;;;17.77;11.95;;;13.20;80.20;;;;;;5065125;28;20028;-75
2022/04/16 04:19:35;;;;;;;19.05;12.45;;;13.20;79.40;;;;;;5064361;28;20054;-74
2022/04/16 04:22:06;;;;;;;18.33;12.27;;;13.10;78.90;;;;;;5065548;28;20082;-74
2022/04/16 04:24:32;;;;;;;16.98;11.82;;;13.20;78.40;;;;;;5065928;28;20033;-74
2022/04/16 04:26:59;;;;;;;20.17;12.00;;;13.10;78.20;;;;;;5064387;28;20032;-74
2022/04/16 04:29:25;;;;;;;18.25;11.82;;;13.20;78.10;;;;;;5064176;28;20025;-73
2022/04/16 04:31:51;;;;;;;18.02;11.57;;;13.10;78.20;;;;;;5065816;28;20028;-74
2022/04/16 04:34:17;;;;;;;18.55;11.52;;;13.20;77.80;;;;;;5063934;28;20382;-74
2022/04/16 04:36:42;;;;;;;17.02;11.32;;;13.10;77.80;;;;;;5065837;28;20028;-74
2022/04/16 04:39:08;;;;;;;16.33;10.93;;;13.10;77.10;;;;;;5064826;28;20074;-74
2022/04/16 04:41:33;;;;;;;16.27;10.50;;;13.10;77.10;;;;;;5063560;28;20248;-74
2022/04/16 04:43:59;;;;;;;15.80;10.02;;;13.10;77.20;;;;;;5064425;28;20050;-74
2022/04/16 04:46:24;;;;;;;16.40;10.88;;;13.10;76.40;;;;;;5062711;28;20029;-75
2022/04/16 04:48:50;;;;;;;14.93;9.63;;;13.10;76.50;;;;;;5063729;28;20029;-74
2022/04/16 04:51:15;;;;;;;14.23;9.52;;;13.10;76.40;;;;;;5044719;28;20036;-74
2022/04/16 04:53:41;;;;;;;14.55;9.75;;;13.10;76.10;;;;;;5044293;28;20036;-75
2022/04/16 04:56:06;;;;;;;14.20;9.15;;;13.10;76.00;;;;;;5053610;28;20056;-75
2022/04/16 04:58:32;;;;;;;13.88;9.38;;;13.10;75.60;;;;;;5062624;28;20090;-75
2022/04/16 05:00:57;;;;;;;13.18;9.02;;;13.10;75.20;;;;;;5052173;28;20462;-73
2022/04/16 05:03:23;;;;;;;14.43;9.00;;;13.10;75.30;;;;;;5056296;28;20025;-75
2022/04/16 05:05:49;;;;;;;14.68;8.38;;;13.10;74.90;;;;;;5065631;28;20103;-74
2022/04/16 05:08:15;;;;;;;12.40;7.85;;;13.10;75.20;;;;;;5064054;28;20035;-74
2022/04/16 05:10:40;;;;;;;13.20;8.43;;;13.10;74.60;;;;;;5064866;28;20044;-74
2022/04/16 05:13:06;;;;;;;11.73;7.85;;;13.10;74.20;;;;;;5064798;28;20102;-73
2022/04/16 05:15:32;;;;;;;12.80;7.50;;;13.10;74.20;;;;;;5058140;28;20039;-74
2022/04/16 05:17:58;;;;;;;11.20;7.28;;;13.10;73.70;;;;;;5055165;28;20029;-74
2022/04/16 05:20:23;;;;;;;10.55;7.53;;;12.90;73.90;;;;;;5062117;28;20403;-74
2022/04/16 05:22:49;;;;;;;11.48;7.53;;;13.10;74.10;;;;;;5067726;28;20028;-75
2022/04/16 05:25:14;;;;;;;11.82;7.18;;;13.10;73.90;;;;;;5066039;28;20031;-75
2022/04/16 05:27:40;;;;;;;10.60;6.93;;;13.10;74.10;;;;;;5065675;28;20155;-74
2022/04/16 05:30:06;;;;;;;12.55;7.25;;;13.10;74.20;;;;;;5048290;28;20396;-75
2022/04/16 05:32:41;;;;;;;10.23;6.65;;;13.10;74.50;;;;;;5061128;28;20036;-76
2022/04/16 05:35:09;;;;;;;12.43;6.82;;;13.00;74.00;;;;;;5062361;28;20100;-74
2022/04/16 05:37:36;;;;;;;10.80;6.20;;;13.10;74.50;;;;;;5056929;28;20024;-75
2022/04/16 05:40:06;;;;;;;11.07;6.57;;;13.10;74.30;;;;;;5061415;28;20077;-74
2022/04/16 05:42:32;;;;;;;11.95;6.95;;;13.10;74.50;;;;;;5055463;28;20025;-75
2022/04/16 05:45:02;;;;;;;11.07;6.80;;;13.10;75.00;;;;;;5049614;28;20487;-74
2022/04/16 05:47:27;;;;;;;9.80;6.38;;;13.10;75.30;;;;;;5058584;28;20028;-74
2022/04/16 05:49:53;;;;;;;11.10;6.53;;;13.10;75.30;;;;;;5059402;28;20029;-73
2022/04/16 05:52:22;;;;;;;10.93;6.30;;;13.00;75.40;;;;;;5064818;28;20484;-72
2022/04/16 05:54:47;;;;;;;8.95;5.53;;;13.10;75.70;;;;;;5067301;28;20048;-75
2022/04/16 05:57:13;;;;;;;9.45;5.63;;;13.10;75.70;;;;;;5067184;28;20029;-75
2022/04/16 05:59:39;;;;;;;11.43;6.07;;;13.10;75.70;;;;;;5068024;28;20455;-73
2022/04/16 06:02:04;;;;;;;9.27;5.72;;;13.10;75.70;;;;;;5066920;28;20036;-76
2022/04/16 06:04:30;;;;;;;9.75;5.15;;;13.10;75.60;;;;;;5067106;28;20479;-75
2022/04/16 06:06:56;;;;;;;8.85;5.38;;;13.10;75.60;;;;;;5066488;28;20016;-75
2022/04/16 06:09:21;;;;;;;8.75;5.28;;;13.10;75.60;;;;;;5064124;28;20020;-75
2022/04/16 06:11:48;;;;;;;7.30;4.32;;;13.20;75.40;;;;;;5067161;28;20032;-74
2022/04/16 06:14:15;;;;;;;7.55;4.53;;;13.20;75.10;;;;;;5064640;28;20085;-75
2022/04/16 06:16:40;;;;;;;8.48;4.40;;;13.20;74.90;;;;;;5064361;28;20027;-74
2022/04/16 06:19:06;;;;;;;8.00;4.55;;;13.20;75.30;;;;;;5069391;28;20036;-74
2022/04/16 06:21:31;;;;;;;8.02;4.50;;;13.20;74.40;;;;;;5062816;28;20029;-74
2022/04/16 06:23:57;;;;;;;8.00;4.40;;;13.20;74.40;;;;;;5066653;28;20112;-75
2022/04/16 06:26:25;;;;;;;8.25;4.40;;;13.30;74.50;;;;;;5068871;28;20017;-75
2022/04/16 06:28:51;;;;;;;7.32;4.20;;;13.20;74.10;;;;;;5064960;28;20808;-75
2022/04/16 06:31:17;;;;;;;10.82;3.92;;;13.30;74.10;;;;;;5067448;28;20060;-75
2022/04/16 06:33:42;;;;;;;8.57;4.40;;;13.30;73.90;;;;;;5064873;28;20052;-75
2022/04/16 06:36:08;;;;;;;8.27;4.47;;;13.30;73.50;;;;;;5058887;28;20036;-75
2022/04/16 06:38:33;;;;;;;6.63;4.00;;;13.30;73.10;;;;;;5068504;28;20040;-75
2022/04/16 06:40:59;;;;;;;8.00;4.25;;;13.30;72.80;;;;;;5068588;28;20017;-75
2022/04/16 06:43:24;;;;;;;6.70;3.70;;;13.40;72.40;;;;;;5069594;28;20033;-75
2022/04/16 06:45:50;;;;;;;8.57;4.43;;;13.40;71.80;;;;;;5069081;28;20107;-75
2022/04/16 06:48:15;;;;;;;6.70;3.80;;;13.30;71.10;;;;;;5069409;28;20016;-75
2022/04/16 06:50:41;;;;;;;7.00;3.92;;;13.40;70.70;;;;;;5070208;28;20087;-75
2022/04/16 06:53:06;;;;;;;7.53;3.70;;;13.40;70.20;;;;;;5068695;28;20415;-75
2022/04/16 06:55:32;;;;;;;7.20;3.63;;;13.40;69.90;;;;;;5065269;28;20039;-74
2022/04/16 06:57:57;;;;;;;6.20;3.45;;;13.60;69.50;;;;;;5068778;28;20020;-75
2022/04/16 07:00:23;;;;;;;7.22;3.92;;;13.50;68.90;;;;;;5069638;28;20033;-76
2022/04/16 07:02:49;;;;;;;7.22;3.40;;;13.50;68.50;;;;;;5070259;28;20028;-75
2022/04/16 07:05:14;;;;;;;6.10;3.33;;;13.50;68.30;;;;;;5060306;28;20020;-76
2022/04/16 07:07:40;;;;;;;6.55;3.33;;;13.60;67.90;;;;;;5069646;28;20778;-76
2022/04/16 07:10:07;;;;;;;6.07;3.20;;;13.50;67.10;;;;;;5069273;28;20133;-75
2022/04/16 07:12:32;;;;;;;5.80;3.08;;;13.60;67.20;;;;;;5068550;28;20048;-77
2022/04/16 07:14:58;;;;;;;5.97;3.15;;;13.60;67.30;;;;;;5069489;28;20066;-75
2022/04/16 07:17:23;;;;;;;6.40;3.20;;;13.60;67.40;;;;;;5068778;28;20059;-76
2022/04/16 07:19:49;;;;;;;6.82;3.05;;;13.60;67.60;;;;;;5069230;28;20103;-74
2022/04/16 07:22:18;;;;;;;5.82;3.22;;;13.60;67.70;;;;;;5067210;28;20016;-76
2022/04/16 07:24:45;;;;;;;6.65;3.03;;;13.60;67.40;;;;;;5058170;28;20616;-75
2022/04/16 07:27:11;;;;;;;5.75;2.97;;;13.60;67.20;;;;;;5064419;28;20033;-73
2022/04/16 07:29:36;;;;;;;5.82;3.15;;;13.60;67.40;;;;;;5064283;28;20020;-75
2022/04/16 07:32:02;;;;;;;5.90;3.20;;;13.60;67.30;;;;;;5067240;28;20047;-73
2022/04/16 07:34:28;;;;;;;5.38;3.08;;;13.70;66.90;;;;;;5052072;28;20108;-78
2022/04/16 07:36:53;;;;;;;6.63;3.05;;;13.70;66.80;;;;;;5066797;28;20056;-75
2022/04/16 07:39:19;;;;;;;4.95;3.00;;;13.70;66.40;;;;;;5064276;28;20039;-74
2022/04/16 07:41:44;;;;;;;5.35;3.30;;;13.70;66.30;;;;;;5058890;28;20063;-75
2022/04/16 07:44:10;;;;;;;7.03;3.20;;;13.70;65.60;;;;;;5064734;28;20547;-75
2022/04/16 07:46:35;;;;;;;5.05;2.80;;;13.80;65.30;;;;;;5068366;28;20111;-77
2022/04/16 07:49:02;;;;;;;5.60;3.17;;;13.80;65.60;;;;;;5067802;28;20028;-76
2022/04/16 07:51:29;;;;;;;6.10;2.88;;;13.70;66.40;;;;;;5068204;28;20517;-76
2022/04/16 07:53:56;;;;;;;5.68;3.25;;;13.80;66.30;;;;;;5065122;28;20031;-75
2022/04/16 07:56:22;;;;;;;5.20;2.70;;;13.80;65.90;;;;;;5062285;28;20073;-75
2022/04/16 07:58:48;;;;;;;5.20;2.55;;;13.80;64.60;;;;;;5065462;28;20033;-77
2022/04/16 08:01:13;;;;;;;5.18;2.88;;;13.80;63.90;;;;;;5065773;28;20540;-74
2022/04/16 08:03:39;;;;;;;6.28;3.03;;;13.80;64.80;;;;;;5068250;28;20033;-75
2022/04/16 08:06:04;;;;;;;5.57;3.10;;;13.80;65.60;;;;;;5066978;28;20024;-74
2022/04/16 08:08:30;;;;;;;5.88;3.05;;;13.80;66.40;;;;;;5067096;28;20027;-75
2022/04/16 08:10:57;;;;;;;6.40;3.20;;;13.80;66.70;;;;;;5066125;28;20052;-76
2022/04/16 08:13:23;;;;;;;5.32;2.78;;;13.80;66.80;;;;;;5067210;28;20026;-76
2022/04/16 08:15:49;;;;;;;13.45;2.70;;;13.80;65.80;;;;;;5068079;28;20111;-74
2022/04/16 08:18:15;;;;;;;5.93;2.70;;;13.80;64.20;;;;;;5065965;28;20032;-74
2022/04/16 08:20:41;;;;;;;5.03;2.65;;;13.90;63.70;;;;;;5066600;28;20549;-74
2022/04/16 08:23:07;;;;;;;5.85;2.88;;;13.90;65.00;;;;;;5064657;28;20021;-73
2022/04/16 08:28:03;;;;;;;6.22;2.70;;;13.90;66.70;;;;;;5059609;28;20033;-75
2022/04/16 08:30:29;;;;;;;4.78;2.50;;;13.90;65.50;;;;;;5066568;28;20387;-74
2022/04/16 08:32:55;;;;;;;4.85;2.58;;;13.90;64.00;;;;;;5063685;28;20040;-72
2022/04/16 08:35:21;;;;;;;8.55;2.90;;;13.90;65.00;;;;;;5061595;28;20173;-74
2022/04/16 08:37:48;;;;;;;9.57;3.05;;;14.00;65.20;;;;;;5064694;28;20059;-72
2022/04/16 08:40:14;;;;;;;8.73;2.72;;;14.00;66.50;;;;;;5061680;28;20036;-74
2022/04/16 08:42:41;;;;;;;10.95;2.85;;;14.00;67.20;;;;;;5062752;28;20024;-74
2022/04/16 08:45:09;;;;;;;7.78;3.08;;;14.00;67.70;;;;;;5064725;28;20028;-74
2022/04/16 08:47:36;;;;;;;6.15;2.65;;;14.00;68.00;;;;;;5063999;28;20606;-74
2022/04/16 08:50:04;;;;;;;7.28;3.00;;;14.00;68.40;;;;;;5061069;28;20052;-73
2022/04/16 08:52:31;;;;;;;5.22;2.45;;;14.00;68.50;;;;;;5062768;28;20037;-74
2022/04/16 08:54:57;;;;;;;9.65;2.85;;;14.00;68.80;;;;;;5061841;28;20036;-74
2022/04/16 08:57:23;;;;;;;7.13;2.80;;;14.00;69.20;;;;;;5063343;28;20036;-75
2022/04/16 08:59:51;;;;;;;5.93;2.70;;;14.10;68.60;;;;;;5061705;28;20032;-74
2022/04/16 09:02:23;;;;;;;6.00;2.35;;;14.10;68.50;;;;;;5058493;28;20024;-74
2022/04/16 09:04:49;;;;;;;6.05;2.45;;;14.10;68.70;;;;;;5062950;28;20028;-73
2022/04/16 09:07:15;;;;;;;6.00;2.35;;;14.10;69.10;;;;;;5063098;28;20017;-74
2022/04/16 09:09:42;;;;;;;5.10;2.47;;;14.10;69.10;;;;;;5050198;28;20029;-74
2022/04/16 09:12:20;;;;;;;5.20;2.45;;;14.10;69.30;;;;;;5061743;28;20027;-74
2022/04/16 09:14:46;;;;;;;4.35;2.30;;;14.10;69.10;;;;;;5063430;28;20025;-74
2022/04/16 09:17:18;;;;;;;4.88;2.35;;;14.20;69.30;;;;;;5065020;28;20487;-74
2022/04/16 09:19:53;;;;;;;6.05;2.50;;;14.20;69.20;;;;;;5062726;28;20028;-74
2022/04/16 09:22:33;;;;;;;3.50;2.10;;;14.20;69.10;;;;;;5064188;28;20158;-74
2022/04/16 09:24:59;;;;;;;4.82;2.20;;;14.20;69.00;;;;;;5065045;28;20480;-74
2022/04/16 09:27:25;;;;;;;4.38;2.10;;;14.20;68.50;;;;;;5063890;28;20032;-74
2022/04/16 09:29:52;;;;;;;4.03;2.10;;;14.20;67.60;;;;;;5064435;28;20029;-75
2022/04/16 09:32:24;;;;;;;5.18;2.20;;;14.20;67.00;;;;;;5063468;28;20510;-75
2022/04/16 09:34:52;;;;;;;3.58;1.90;;;14.20;65.90;;;;;;5064410;28;20032;-73
2022/04/16 09:37:19;;;;;;;5.32;2.10;;;14.20;65.60;;;;;;5064192;28;20035;-74
2022/04/16 09:39:44;;;;;;;4.22;2.00;;;14.20;65.30;;;;;;5061767;28;20021;-74
2022/04/16 09:42:10;;;;;;;3.92;1.90;;;14.20;65.00;;;;;;5052683;28;20039;-73
2022/04/16 09:44:35;;;;;;;4.95;1.70;;;14.30;65.60;;;;;;5063013;28;20456;-76
2022/04/16 09:47:03;;;;;;;3.10;1.77;;;14.30;65.30;;;;;;5065142;28;20024;-72
2022/04/16 09:49:32;;;;;;;3.28;1.77;;;14.30;66.10;;;;;;5067150;28;20028;-76
2022/04/16 09:52:01;;;;;;;3.35;1.90;;;14.30;64.70;;;;;;5063617;28;20055;-76
2022/04/16 09:54:27;;;;;;;3.38;1.95;;;14.30;65.00;;;;;;5065050;28;20518;-75
2022/04/16 09:57:00;;;;;;;4.13;1.70;;;14.30;64.30;;;;;;5064208;28;20086;-76
2022/04/16 09:59:27;;;;;;;4.70;1.90;;;14.30;64.00;;;;;;5064006;28;20068;-75
2022/04/16 10:01:53;;;;;;;4.72;1.90;;;14.30;64.00;;;;;;5068896;28;20553;-78
2022/04/16 10:04:20;;;;;;;3.10;1.67;;;14.30;63.30;;;;;;5075354;28;20029;-79
2022/04/16 10:06:47;;;;;;;3.55;1.65;;;14.30;62.50;;;;;;5070942;28;20028;-78
2022/04/16 10:09:22;;;;;;;6.75;1.85;;;14.20;61.80;;;;;;5067952;28;20046;-81
2022/04/16 10:14:49;;;;;;;5.50;1.77;;;14.30;61.40;;;;;;5075964;28;20110;-81
2022/04/16 10:17:18;;;;;;;6.22;1.60;;;14.30;61.20;;;;;;5075320;28;20020;-83
2022/04/16 10:19:47;;;;;;;3.17;1.45;;;14.30;61.80;;;;;;5073814;28;20024;-81
2022/04/16 10:22:24;;;;;;;4.32;1.63;;;14.30;61.80;;;;;;5074066;28;20035;-78
2022/04/16 10:24:51;;;;;;;7.00;1.73;;;14.30;62.40;;;;;;5073768;28;20483;-79
2022/04/16 10:27:31;;;;;;;5.93;1.70;;;14.30;62.40;;;;;;5074293;28;20421;-80
2022/04/16 10:30:01;;;;;;;7.32;1.85;;;14.30;62.90;;;;;;5072730;28;20035;-77
2022/04/16 10:32:41;;;;;;;222.93;17.00;;;14.30;62.90;;;;;;5073236;28;20108;-81
2022/04/16 10:35:13;;;;;;;270.52;20.02;;;14.30;62.70;;;;;;5075212;28;20047;-79
2022/04/16 10:37:40;;;;;;;227.48;17.95;;;14.30;62.20;;;;;;5073307;28;20029;-79
2022/04/16 10:40:23;;;;;;;203.43;14.05;;;14.30;64.00;;;;;;5072891;28;20096;-79
2022/04/16 10:42:58;;;;;;;155.02;12.68;;;14.30;63.60;;;;;;5073597;28;20040;-79
2022/04/16 10:45:25;;;;;;;120.15;9.05;;;14.30;63.00;;;;;;5068713;28;20033;-77
2022/04/16 10:47:52;;;;;;;104.13;9.30;;;14.30;63.00;;;;;;5081167;28;20399;-80
2022/04/16 10:50:19;;;;;;;82.00;7.88;;;14.30;62.90;;;;;;5062877;28;20079;-77
2022/04/16 10:52:53;;;;;;;61.58;5.47;;;14.30;63.10;;;;;;5064723;28;20021;-80
2022/04/16 10:55:21;;;;;;;50.47;4.85;;;14.40;63.20;;;;;;5052176;28;20427;-78
2022/04/16 10:57:59;;;;;;;44.85;4.82;;;14.30;62.80;;;;;;5069107;28;20042;-80
2022/04/16 11:00:36;;;;;;;42.15;4.25;;;14.30;62.70;;;;;;5070678;28;20036;-80
2022/04/16 11:03:28;;;;;;;44.65;4.40;;;14.30;62.20;;;;;;5065822;28;20032;-80
2022/04/16 11:06:04;;;;;;;34.72;4.18;;;14.30;63.00;;;;;;5061432;28;20021;-80
2022/04/16 11:08:32;;;;;;;29.40;3.72;;;14.40;62.40;;;;;;5072610;28;20025;-78
2022/04/16 11:10:58;;;;;;;34.17;3.60;;;14.30;62.80;;;;;;5071357;28;20040;-80
2022/04/16 11:13:29;;;;;;;29.70;3.92;;;14.30;62.50;;;;;;5071919;28;20044;-80
2022/04/16 11:15:56;;;;;;;30.38;3.95;;;14.40;62.50;;;;;;5068640;28;20112;-79
2022/04/16 11:18:21;;;;;;;19.50;3.03;;;14.30;63.10;;;;;;5074107;28;20040;-79
2022/04/16 11:20:56;;;;;;;33.63;4.28;;;14.30;62.60;;;;;;5071456;28;20020;-80
2022/04/16 11:23:26;;;;;;;33.88;3.90;;;14.30;62.70;;;;;;5069497;28;20017;-76
2022/04/16 11:34:20;;;;;;;23.05;3.38;;;14.40;64.40;;;;;;5061539;28;20498;-78
2022/04/16 11:36:50;;;;;;;19.70;2.75;;;14.40;64.70;;;;;;5067062;28;20021;-76
2022/04/16 11:39:20;;;;;;;20.98;3.00;;;14.40;65.30;;;;;;5069027;28;20089;-77
2022/04/16 11:41:48;;;;;;;20.00;3.20;;;14.40;65.40;;;;;;5069539;28;20024;-80
2022/04/16 11:44:14;;;;;;;24.15;3.10;;;14.40;65.80;;;;;;5070163;28;20859;-79
2022/04/16 11:46:41;;;;;;;22.55;3.05;;;14.30;65.80;;;;;;5070655;28;20037;-77
2022/04/16 11:49:07;;;;;;;18.52;2.65;;;14.40;66.00;;;;;;5069757;28;20066;-77
2022/04/16 11:51:36;;;;;;;11.90;2.10;;;14.40;66.30;;;;;;5070255;28;20033;-76
2022/04/16 11:54:02;;;;;;;15.10;2.50;;;14.40;66.30;;;;;;5070013;28;20035;-78
2022/04/16 11:56:27;;;;;;;18.08;2.55;;;14.40;66.40;;;;;;5069188;28;20025;-78
2022/04/16 11:58:53;;;;;;;16.23;2.72;;;14.40;66.60;;;;;;5069727;28;20047;-76
2022/04/16 12:01:20;;;;;;;15.02;2.50;;;14.40;66.80;;;;;;5068159;28;20078;-78
2022/04/16 12:03:45;;;;;;;13.75;2.40;;;14.30;66.80;;;;;;5068950;28;20020;-77
2022/04/16 12:06:12;;;;;;;14.27;2.97;;;14.30;66.90;;;;;;5069436;28;20040;-77
2022/04/16 12:08:41;;;;;;;12.27;2.67;;;14.30;67.10;;;;;;5069025;28;20020;-78
2022/04/16 12:11:08;;;;;;;10.65;2.05;;;14.30;67.30;;;;;;5067994;28;20387;-78
2022/04/16 12:13:39;;;;;;;14.98;2.58;;;14.30;67.40;;;;;;5068384;28;20383;-78
2022/04/16 12:16:07;;;;;;;14.35;2.03;;;14.30;67.40;;;;;;5067494;28;20029;-77
2022/04/16 12:18:38;;;;;;;9.25;2.30;;;14.30;67.50;;;;;;5068508;28;20029;-76
2022/04/16 12:21:09;;;;;;;14.07;2.72;;;14.30;67.60;;;;;;5066950;28;20491;-76
2022/04/16 12:23:38;;;;;;;14.73;2.22;;;14.30;67.70;;;;;;5067036;28;20036;-78
2022/04/16 12:26:09;;;;;;;11.35;2.40;;;14.30;67.80;;;;;;5067255;28;20029;-77
2022/04/16 12:28:39;;;;;;;7.95;2.03;;;14.30;67.90;;;;;;5066586;28;20391;-78
2022/04/16 12:31:04;;;;;;;7.78;2.20;;;14.30;67.90;;;;;;5068320;28;20382;-78
2022/04/16 12:33:30;;;;;;;9.63;2.00;;;14.30;68.00;;;;;;5069646;28;20467;-77
2022/04/16 12:35:58;;;;;;;12.93;2.97;;;14.30;67.60;;;;;;5071151;28;20016;-77
2022/04/16 12:38:25;;;;;;;10.95;2.17;;;14.30;67.40;;;;;;5060935;28;20036;-75
2022/04/16 12:40:52;;;;;;;9.00;2.15;;;14.30;67.40;;;;;;5071368;28;20036;-78
2022/04/16 12:43:18;;;;;;;6.95;2.05;;;14.20;67.10;;;;;;5070845;28;20021;-76
2022/04/16 12:45:43;;;;;;;10.05;1.88;;;14.30;66.00;;;;;;5070311;28;20021;-76
2022/04/16 12:48:09;;;;;;;7.90;2.13;;;14.20;66.10;;;;;;5071655;28;20396;-78
2022/04/16 12:50:35;;;;;;;4.57;2.00;;;14.30;66.80;;;;;;5071779;28;20025;-79
2022/04/16 12:53:01;;;;;;;6.47;1.60;;;14.30;66.80;;;;;;5070139;28;20028;-79
2022/04/16 12:55:31;;;;;;;6.95;1.83;;;14.20;67.20;;;;;;5071083;28;20028;-78
2022/04/16 12:57:57;;;;;;;5.65;2.00;;;14.20;67.10;;;;;;5071124;28;20388;-78
2022/04/16 13:00:22;;;;;;;8.32;2.10;;;14.20;66.70;;;;;;5069330;28;20082;-78